Time;durP1;ratioP1;P1;durP2;ratioP2;P2;SDS_P1;SDS_P2;PMS_P1;PMS_P2;Temp;Humidity;BMP_temperature;BMP_pressure;BME280_temperature;BME280_humidity;BME280_pressure;Samples;Min_cycle;Max_cycle;Signal;HPM_P1;HPM_P2
2024/03/07 00:03:17;;;;;;;2.05;1.80;;;21.70;50.50;;;;;;10395988;28;20099;-58
2024/03/07 00:08:19;;;;;;;1.98;1.70;;;22.00;50.70;;;;;;10395578;28;20698;-57
2024/03/07 00:13:22;;;;;;;2.00;1.80;;;21.80;51.30;;;;;;10390686;28;20121;-60
2024/03/07 00:18:23;;;;;;;2.53;2.10;;;21.70;52.30;;;;;;10395424;28;20132;-58
2024/03/07 00:23:26;;;;;;;3.80;2.10;;;21.70;54.10;;;;;;10396511;28;20136;-58
2024/03/07 00:28:32;;;;;;;4.15;2.00;;;21.60;53.30;;;;;;10397920;28;20128;-58
2024/03/07 00:33:34;;;;;;;2.25;2.00;;;21.60;52.60;;;;;;10402739;28;20395;-58
2024/03/07 00:38:35;;;;;;;2.15;1.90;;;21.50;52.40;;;;;;10395541;28;20572;-57
2024/03/07 00:43:38;;;;;;;2.20;2.00;;;21.40;52.30;;;;;;10396798;28;20121;-58
2024/03/07 00:48:40;;;;;;;2.92;1.80;;;21.40;53.20;;;;;;10401359;28;20122;-58
2024/03/07 00:53:42;;;;;;;2.10;1.90;;;21.20;53.50;;;;;;10395460;28;20045;-58
2024/03/07 00:58:44;;;;;;;2.13;1.92;;;21.30;50.50;;;;;;10401547;28;20540;-58
2024/03/07 01:03:46;;;;;;;2.10;1.83;;;21.20;50.80;;;;;;10403296;28;20144;-58
2024/03/07 01:08:48;;;;;;;2.00;1.80;;;21.10;49.90;;;;;;10399921;28;20129;-59
2024/03/07 01:13:53;;;;;;;2.03;1.60;;;21.00;50.50;;;;;;10402940;28;20455;-55
2024/03/07 01:18:55;;;;;;;2.45;1.98;;;21.10;50.10;;;;;;10400665;28;20132;-58
2024/03/07 01:23:56;;;;;;;2.33;2.08;;;20.90;50.50;;;;;;10404137;28;20136;-56
2024/03/07 01:28:59;;;;;;;1.88;1.70;;;20.90;50.60;;;;;;10397659;28;20474;-57
2024/03/07 01:34:01;;;;;;;2.20;1.92;;;21.00;50.40;;;;;;10398434;28;20048;-56
2024/03/07 01:39:03;;;;;;;2.42;1.90;;;20.90;50.30;;;;;;10400626;28;20132;-58
2024/03/07 01:44:07;;;;;;;1.88;1.77;;;20.80;50.60;;;;;;10400578;28;20061;-60
2024/03/07 01:49:08;;;;;;;2.00;1.80;;;20.60;51.20;;;;;;10404476;28;20550;-61
2024/03/07 01:54:10;;;;;;;2.78;1.88;;;20.60;50.90;;;;;;10403732;28;20132;-60
2024/03/07 01:59:13;;;;;;;1.83;1.73;;;20.60;50.80;;;;;;10398444;28;20136;-60
2024/03/07 02:04:15;;;;;;;2.13;1.75;;;20.70;51.00;;;;;;10399963;28;20156;-60
2024/03/07 02:09:17;;;;;;;2.47;1.90;;;20.60;50.80;;;;;;10402692;28;20482;-59
2024/03/07 02:14:20;;;;;;;2.15;1.70;;;20.50;51.10;;;;;;10403055;28;20455;-57
2024/03/07 02:19:21;;;;;;;3.15;1.60;;;20.40;51.30;;;;;;10402359;28;20084;-58
2024/03/07 02:24:24;;;;;;;2.33;1.75;;;20.40;51.50;;;;;;10398086;28;20168;-55
2024/03/07 02:29:26;;;;;;;2.42;2.03;;;20.50;52.00;;;;;;10396799;28;20547;-57
2024/03/07 02:34:28;;;;;;;2.28;1.90;;;20.30;51.70;;;;;;10393534;28;20571;-54
2024/03/07 02:39:31;;;;;;;1.80;1.70;;;20.40;51.90;;;;;;10392073;28;20128;-60
2024/03/07 02:44:32;;;;;;;2.33;1.90;;;20.20;52.40;;;;;;10396302;28;20133;-61
2024/03/07 02:49:34;;;;;;;1.92;1.70;;;20.20;51.90;;;;;;10396835;28;20041;-58
2024/03/07 02:54:37;;;;;;;1.90;1.70;;;20.20;51.40;;;;;;10396915;28;20045;-59
2024/03/07 02:59:39;;;;;;;2.08;1.73;;;20.20;51.40;;;;;;10400554;28;20124;-58
2024/03/07 03:04:40;;;;;;;1.75;1.65;;;20.10;51.20;;;;;;10398648;28;20478;-59
2024/03/07 03:09:43;;;;;;;1.60;1.50;;;20.10;51.00;;;;;;10397970;28;20145;-59
2024/03/07 03:14:45;;;;;;;2.53;1.88;;;20.10;51.30;;;;;;10394512;28;20053;-55
2024/03/07 03:19:49;;;;;;;2.10;1.70;;;20.00;51.40;;;;;;10396163;28;20144;-58
2024/03/07 03:24:55;;;;;;;1.70;1.60;;;20.20;51.20;;;;;;10395339;28;20081;-57
2024/03/07 03:29:56;;;;;;;3.10;1.92;;;20.00;52.00;;;;;;10396543;28;20054;-58
2024/03/07 03:34:58;;;;;;;1.60;1.50;;;20.00;52.60;;;;;;10401147;28;20445;-60
2024/03/07 03:40:01;;;;;;;1.98;1.77;;;20.00;52.20;;;;;;10395564;28;20423;-58
2024/03/07 03:45:07;;;;;;;1.92;1.83;;;19.90;52.10;;;;;;10395445;28;20056;-59
2024/03/07 03:50:09;;;;;;;2.10;1.77;;;19.90;52.10;;;;;;10394332;28;20076;-60
2024/03/07 03:55:13;;;;;;;2.05;1.73;;;19.80;52.10;;;;;;10395599;28;20096;-59
2024/03/07 04:00:14;;;;;;;1.75;1.55;;;19.90;52.10;;;;;;10389526;28;20148;-59
2024/03/07 04:05:17;;;;;;;2.03;1.85;;;19.60;52.40;;;;;;10401910;28;20076;-59
2024/03/07 04:10:21;;;;;;;2.10;1.90;;;19.70;51.20;;;;;;10395673;28;20045;-57
2024/03/07 04:15:26;;;;;;;1.90;1.70;;;20.10;50.60;;;;;;10401228;28;20090;-54
2024/03/07 04:20:28;;;;;;;2.88;1.67;;;20.50;49.50;;;;;;10395482;28;20088;-61
2024/03/07 04:25:32;;;;;;;1.77;1.67;;;20.70;49.10;;;;;;10391907;28;20041;-61
2024/03/07 04:30:34;;;;;;;2.20;1.77;;;20.80;48.90;;;;;;10394011;28;20049;-58
2024/03/07 04:35:35;;;;;;;1.90;1.70;;;20.80;48.60;;;;;;10396206;28;20129;-61
2024/03/07 04:40:38;;;;;;;1.73;1.63;;;20.90;48.40;;;;;;10407036;28;20541;-61
2024/03/07 04:45:40;;;;;;;1.75;1.55;;;21.00;47.90;;;;;;10406510;28;20135;-61
2024/03/07 04:50:42;;;;;;;1.98;1.80;;;21.10;47.70;;;;;;10401086;28;20056;-61
2024/03/07 04:55:45;;;;;;;1.70;1.50;;;21.10;47.70;;;;;;10405403;28;20140;-60
2024/03/07 05:00:46;;;;;;;1.63;1.52;;;21.20;47.60;;;;;;10398473;28;20132;-59
2024/03/07 05:05:48;;;;;;;1.90;1.58;;;21.30;47.30;;;;;;10401534;28;20145;-60
2024/03/07 05:10:52;;;;;;;2.15;1.60;;;21.30;47.30;;;;;;10406116;28;20041;-61
2024/03/07 05:15:54;;;;;;;1.88;1.70;;;21.40;47.20;;;;;;10401753;28;20470;-59
2024/03/07 05:20:55;;;;;;;1.75;1.60;;;21.40;47.20;;;;;;10403040;28;20136;-57
2024/03/07 05:25:58;;;;;;;1.42;1.33;;;21.50;47.30;;;;;;10403494;28;20145;-58
2024/03/07 05:31:00;;;;;;;1.50;1.40;;;21.60;47.40;;;;;;10404440;28;20059;-59
2024/03/07 05:36:14;;;;;;;2.00;1.30;;;21.60;47.40;;;;;;10404401;28;20073;-58
2024/03/07 05:41:17;;;;;;;1.50;1.40;;;21.70;47.40;;;;;;10397579;28;20073;-59
2024/03/07 05:46:18;;;;;;;1.65;1.55;;;21.70;47.30;;;;;;10398175;28;20482;-60
2024/03/07 05:51:20;;;;;;;1.60;1.50;;;21.70;47.40;;;;;;10392471;28;20131;-59
2024/03/07 05:56:23;;;;;;;1.38;1.27;;;21.70;47.90;;;;;;10394736;28;20140;-55
2024/03/07 06:01:27;;;;;;;2.85;1.50;;;21.60;47.90;;;;;;10402462;28;20140;-53
2024/03/07 06:06:31;;;;;;;2.40;1.40;;;21.70;48.20;;;;;;10401995;28;20068;-57
2024/03/07 06:11:35;;;;;;;1.83;1.60;;;21.70;48.50;;;;;;10396846;28;20129;-55
2024/03/07 06:16:38;;;;;;;2.00;1.80;;;21.70;47.70;;;;;;10397670;28;20061;-56
2024/03/07 06:21:41;;;;;;;1.90;1.60;;;21.70;47.50;;;;;;10394168;28;20499;-54
2024/03/07 06:26:49;;;;;;;1.67;1.58;;;21.70;47.40;;;;;;10400155;28;20049;-60
2024/03/07 06:31:50;;;;;;;3.20;1.65;;;21.70;47.40;;;;;;10400327;28;20673;-59
2024/03/07 06:36:52;;;;;;;6.15;1.90;;;21.80;48.20;;;;;;10399704;28;20423;-58
2024/03/07 06:41:55;;;;;;;15.27;2.10;;;21.70;48.50;;;;;;10396669;28;20133;-57
2024/03/07 06:46:58;;;;;;;7.90;1.90;;;21.60;48.50;;;;;;10398693;28;20052;-56
2024/03/07 06:51:59;;;;;;;6.68;2.10;;;21.60;48.40;;;;;;10399418;28;20488;-58
2024/03/07 06:57:02;;;;;;;13.55;4.10;;;21.70;48.50;;;;;;10397064;28;20160;-60
2024/03/07 07:02:04;;;;;;;20.88;4.65;;;21.70;48.70;;;;;;10392865;28;20069;-60
2024/03/07 07:07:07;;;;;;;35.88;5.90;;;21.70;50.20;;;;;;10390910;28;20522;-61
2024/03/07 07:12:10;;;;;;;21.45;4.20;;;21.60;50.90;;;;;;10400814;28;20107;-61
2024/03/07 07:17:13;;;;;;;12.63;3.50;;;21.60;50.30;;;;;;10400040;28;20063;-60
2024/03/07 07:22:15;;;;;;;16.13;3.83;;;21.60;49.00;;;;;;10396798;28;20530;-59
2024/03/07 07:27:18;;;;;;;14.95;3.58;;;22.00;46.60;;;;;;10396581;28;20080;-61
2024/03/07 07:32:20;;;;;;;10.45;3.05;;;21.90;46.80;;;;;;10394213;28;20041;-58
2024/03/07 07:37:22;;;;;;;11.02;3.20;;;21.70;47.40;;;;;;10396285;28;20045;-59
2024/03/07 07:42:25;;;;;;;7.22;2.92;;;21.60;47.50;;;;;;10405870;28;20041;-56
2024/03/07 07:47:27;;;;;;;6.65;2.70;;;21.70;47.30;;;;;;10399579;28;20124;-60
2024/03/07 07:52:29;;;;;;;4.47;2.60;;;21.90;46.80;;;;;;10398257;28;20066;-56
2024/03/07 07:57:32;;;;;;;8.77;2.63;;;21.80;46.80;;;;;;10399394;28;20384;-57
2024/03/07 08:02:34;;;;;;;5.90;2.58;;;21.70;47.00;;;;;;10395541;28;20136;-58
2024/03/07 08:07:36;;;;;;;6.95;2.30;;;21.70;46.80;;;;;;10400635;28;20068;-57
2024/03/07 08:12:41;;;;;;;4.90;2.30;;;21.60;47.00;;;;;;10402576;28;20561;-58
2024/03/07 08:17:43;;;;;;;5.68;2.60;;;21.70;46.60;;;;;;10399923;28;20133;-56
2024/03/07 08:22:45;;;;;;;6.35;2.53;;;21.60;46.80;;;;;;10396947;28;20050;-58
2024/03/07 08:27:49;;;;;;;5.80;2.38;;;21.60;46.80;;;;;;10403356;28;20505;-58
2024/03/07 08:32:51;;;;;;;7.70;2.45;;;21.50;46.80;;;;;;10400876;28;20128;-57
2024/03/07 08:37:54;;;;;;;5.32;2.40;;;21.60;46.50;;;;;;10404201;28;20052;-55
2024/03/07 08:42:57;;;;;;;5.18;2.47;;;21.80;46.00;;;;;;10402717;28;20045;-59
2024/03/07 08:47:58;;;;;;;2.88;2.13;;;21.70;46.20;;;;;;10402215;28;20495;-56
2024/03/07 08:53:00;;;;;;;2.25;2.05;;;21.70;46.10;;;;;;10409973;28;20129;-57
2024/03/07 08:58:06;;;;;;;4.25;2.17;;;21.70;45.90;;;;;;10404201;28;20115;-53
2024/03/07 09:03:09;;;;;;;4.03;2.50;;;21.80;45.60;;;;;;10400870;28;20450;-54
2024/03/07 09:08:11;;;;;;;2.50;2.20;;;21.80;45.00;;;;;;10401958;28;20462;-56
2024/03/07 09:13:14;;;;;;;6.20;2.88;;;21.90;44.80;;;;;;10401253;28;20415;-57
2024/03/07 09:18:16;;;;;;;4.95;2.45;;;21.80;44.60;;;;;;10401677;28;20084;-55
2024/03/07 09:23:17;;;;;;;4.85;2.25;;;21.70;44.30;;;;;;10396287;28;20136;-58
2024/03/07 09:28:20;;;;;;;3.65;2.50;;;21.80;43.70;;;;;;10393311;28;20088;-54
2024/03/07 09:33:22;;;;;;;2.80;2.40;;;21.90;44.30;;;;;;10392482;28;20144;-54
2024/03/07 09:38:24;;;;;;;3.85;2.60;;;21.80;43.50;;;;;;10398362;28;20127;-57
2024/03/07 09:43:27;;;;;;;4.03;2.40;;;21.80;43.40;;;;;;10396852;28;20116;-57
2024/03/07 09:48:29;;;;;;;3.53;2.50;;;21.90;43.00;;;;;;10405316;28;20128;-54
2024/03/07 09:53:32;;;;;;;3.40;2.40;;;21.80;43.10;;;;;;10398803;28;20038;-56
2024/03/07 09:58:35;;;;;;;4.32;2.30;;;21.80;43.30;;;;;;10401701;28;20065;-56
2024/03/07 10:03:37;;;;;;;8.02;2.47;;;21.70;43.70;;;;;;10400776;28;20055;-55
2024/03/07 10:08:38;;;;;;;3.38;1.92;;;21.90;43.80;;;;;;10404345;28;20136;-55
2024/03/07 10:13:41;;;;;;;3.97;2.30;;;22.20;43.60;;;;;;10401453;28;20503;-56
2024/03/07 10:18:43;;;;;;;3.35;2.40;;;21.90;44.20;;;;;;10397594;28;20046;-54
2024/03/07 10:23:46;;;;;;;3.78;2.50;;;22.00;44.20;;;;;;10398054;28;20054;-57
2024/03/07 10:28:49;;;;;;;2.95;2.30;;;21.90;45.00;;;;;;10399841;28;20051;-52
2024/03/07 10:33:50;;;;;;;4.68;2.38;;;22.10;44.10;;;;;;10397968;28;20133;-54
2024/03/07 10:38:55;;;;;;;5.05;2.60;;;22.10;44.00;;;;;;10394549;28;20129;-56
2024/03/07 10:43:58;;;;;;;3.88;2.20;;;22.00;44.50;;;;;;10394525;28;20042;-57
2024/03/07 10:49:00;;;;;;;3.72;2.50;;;21.90;44.40;;;;;;10389529;28;20049;-57
2024/03/07 10:54:09;;;;;;;5.07;2.30;;;21.90;44.40;;;;;;10398086;28;20161;-55
2024/03/07 10:59:17;;;;;;;3.40;2.08;;;22.10;44.10;;;;;;10395974;28;20049;-56
2024/03/07 11:04:21;;;;;;;2.45;2.17;;;22.10;44.00;;;;;;10398390;28;20132;-57
2024/03/07 11:09:29;;;;;;;3.17;2.65;;;22.00;44.50;;;;;;10397948;28;20111;-58
2024/03/07 11:14:35;;;;;;;4.15;2.63;;;21.90;44.70;;;;;;10399332;28;20062;-53
2024/03/07 11:19:38;;;;;;;4.07;2.63;;;21.90;45.00;;;;;;10399298;28;20048;-57
2024/03/07 11:24:39;;;;;;;5.63;2.70;;;22.00;44.90;;;;;;10400560;28;20450;-56
2024/03/07 11:29:52;;;;;;;2.42;2.20;;;22.00;45.00;;;;;;10396923;28;20152;-59
2024/03/07 11:34:54;;;;;;;4.55;2.35;;;22.00;45.00;;;;;;10397853;28;20042;-57
2024/03/07 11:39:58;;;;;;;5.47;2.38;;;22.10;45.00;;;;;;10397106;28;20132;-58
2024/03/07 11:45:03;;;;;;;4.15;2.50;;;22.00;44.90;;;;;;10397134;28;20099;-58
2024/03/07 11:50:11;;;;;;;5.67;2.53;;;22.30;44.60;;;;;;10394630;28;20104;-57
2024/03/07 11:55:15;;;;;;;4.32;2.70;;;22.10;44.90;;;;;;10395175;28;20096;-56
2024/03/07 12:00:18;;;;;;;6.55;2.30;;;22.10;44.80;;;;;;10388352;28;20052;-57
2024/03/07 12:05:20;;;;;;;3.75;2.70;;;22.10;44.80;;;;;;10390227;28;20076;-57
2024/03/07 12:10:24;;;;;;;4.70;2.50;;;22.20;44.70;;;;;;10391451;28;20114;-57
2024/03/07 12:15:27;;;;;;;3.60;2.63;;;22.10;44.70;;;;;;10399675;28;20041;-56
2024/03/07 12:20:33;;;;;;;6.72;2.67;;;22.10;45.00;;;;;;10394543;28;20491;-59
2024/03/07 12:25:36;;;;;;;4.75;2.58;;;22.00;45.00;;;;;;10398421;28;20045;-60
2024/03/07 12:30:49;;;;;;;3.97;2.47;;;22.20;44.70;;;;;;10398692;28;20454;-54
2024/03/07 12:35:52;;;;;;;3.25;2.63;;;22.30;44.40;;;;;;10396395;28;20123;-58
2024/03/07 12:41:05;;;;;;;6.07;2.40;;;22.10;44.90;;;;;;10397293;28;20046;-55
2024/03/07 12:46:08;;;;;;;3.95;2.70;;;22.10;44.90;;;;;;10395085;28;20046;-56
2024/03/07 12:51:10;;;;;;;5.93;3.05;;;22.10;45.00;;;;;;10392034;28;20053;-53
2024/03/07 12:56:16;;;;;;;5.75;2.47;;;22.10;45.80;;;;;;10401991;28;20136;-57
2024/03/07 13:01:19;;;;;;;7.07;2.85;;;22.10;45.30;;;;;;10402377;28;20053;-58
2024/03/07 13:06:25;;;;;;;13.18;4.78;;;22.00;45.70;;;;;;10398687;28;20153;-57
2024/03/07 13:11:29;;;;;;;14.87;4.90;;;22.00;46.60;;;;;;10399244;28;20046;-58
2024/03/07 13:16:32;;;;;;;13.63;4.78;;;22.20;46.50;;;;;;10395646;28;20119;-56
2024/03/07 13:21:35;;;;;;;14.13;5.30;;;22.10;46.90;;;;;;10397334;28;20136;-56
2024/03/07 13:26:37;;;;;;;13.00;4.65;;;22.10;47.00;;;;;;10394913;28;20480;-57
2024/03/07 13:31:42;;;;;;;12.98;4.85;;;22.10;47.10;;;;;;10399745;28;20050;-59
2024/03/07 13:36:44;;;;;;;12.68;4.50;;;22.30;46.80;;;;;;10401602;28;20049;-54
2024/03/07 13:41:48;;;;;;;11.50;4.60;;;22.50;46.20;;;;;;10404956;28;20084;-60
2024/03/07 13:46:52;;;;;;;13.15;4.63;;;22.30;46.60;;;;;;10406843;28;20054;-56
2024/03/07 13:51:59;;;;;;;9.18;4.18;;;22.30;46.80;;;;;;10401538;28;20054;-57
2024/03/07 13:57:19;;;;;;;9.40;4.40;;;22.30;46.80;;;;;;10402096;28;20049;-59
2024/03/07 14:02:36;;;;;;;7.25;3.90;;;22.30;46.70;;;;;;10397201;28;20054;-55
2024/03/07 14:07:46;;;;;;;11.30;4.20;;;22.30;46.50;;;;;;10394590;28;20128;-59
2024/03/07 14:12:59;;;;;;;9.93;4.78;;;22.40;46.20;;;;;;10394226;28;20041;-57
2024/03/07 14:18:46;;;;;;;7.10;4.30;;;22.30;46.30;;;;;;10395917;28;20770;-54
2024/03/07 14:24:08;;;;;;;7.60;3.83;;;22.40;46.20;;;;;;10397717;28;20038;-55
2024/03/07 14:29:18;;;;;;;10.40;4.57;;;22.50;46.10;;;;;;10393003;28;20054;-57
2024/03/07 14:34:25;;;;;;;7.43;3.97;;;22.50;46.00;;;;;;10390434;28;20117;-58
2024/03/07 14:39:26;;;;;;;6.07;3.88;;;22.60;45.90;;;;;;10397214;28;20136;-55
2024/03/07 14:44:28;;;;;;;5.68;4.18;;;22.70;45.90;;;;;;10394120;28;20044;-58
2024/03/07 14:49:32;;;;;;;8.00;3.80;;;22.70;45.70;;;;;;10392029;28;20053;-54
2024/03/07 14:54:34;;;;;;;6.30;4.35;;;22.80;46.30;;;;;;10399104;28;20073;-59
2024/03/07 14:59:36;;;;;;;7.00;3.60;;;22.70;45.70;;;;;;10400363;28;20132;-58
2024/03/07 15:04:41;;;;;;;6.13;4.13;;;22.70;45.70;;;;;;10401252;28;20496;-58
2024/03/07 15:09:42;;;;;;;5.35;3.30;;;22.70;45.30;;;;;;10400540;28;20049;-58
2024/03/07 15:14:44;;;;;;;6.07;3.75;;;22.80;45.10;;;;;;10396543;28;20096;-54
2024/03/07 15:19:47;;;;;;;5.20;3.67;;;23.00;44.80;;;;;;10396630;28;20467;-61
2024/03/07 15:24:48;;;;;;;6.15;3.95;;;23.30;44.00;;;;;;10387950;28;20132;-61
2024/03/07 15:29:50;;;;;;;7.55;4.05;;;23.50;43.50;;;;;;10386974;28;20132;-61
2024/03/07 15:34:53;;;;;;;5.38;3.80;;;23.80;42.90;;;;;;10391398;28;20080;-58
2024/03/07 15:39:55;;;;;;;4.10;3.53;;;24.90;41.00;;;;;;10393945;28;20056;-58
2024/03/07 15:44:56;;;;;;;7.25;3.55;;;25.50;39.50;;;;;;10391911;28;20128;-60
2024/03/07 15:49:59;;;;;;;5.28;3.75;;;25.60;39.10;;;;;;10390067;28;20484;-59
2024/03/07 15:55:01;;;;;;;4.28;3.45;;;25.50;39.00;;;;;;10388176;28;20124;-59
2024/03/07 16:00:22;;;;;;;4.97;3.60;;;25.40;39.00;;;;;;10394990;28;20084;-58
2024/03/07 16:05:25;;;;;;;5.07;3.65;;;24.90;39.80;;;;;;10392494;28;20049;-59
2024/03/07 16:10:30;;;;;;;4.25;3.60;;;24.60;40.30;;;;;;10395660;28;20137;-59
2024/03/07 16:15:32;;;;;;;5.15;3.55;;;24.40;40.90;;;;;;10396285;28;20050;-57
2024/03/07 16:20:35;;;;;;;3.83;3.30;;;24.00;41.40;;;;;;10397168;28;20137;-60
2024/03/07 16:25:38;;;;;;;4.40;3.70;;;23.90;41.70;;;;;;10374551;28;20478;-56
2024/03/07 16:30:43;;;;;;;4.45;3.45;;;23.80;41.90;;;;;;10398773;28;20042;-58
2024/03/07 16:35:46;;;;;;;4.50;3.42;;;23.60;42.30;;;;;;10396694;28;20041;-58
2024/03/07 16:40:49;;;;;;;3.97;3.22;;;23.40;42.70;;;;;;10395066;28;20128;-56
2024/03/07 16:45:50;;;;;;;5.97;3.65;;;23.30;42.70;;;;;;10408847;28;20457;-56
2024/03/07 16:50:57;;;;;;;6.47;3.65;;;23.20;42.70;;;;;;10408488;28;20296;-56
2024/03/07 16:55:59;;;;;;;5.95;3.53;;;23.10;43.10;;;;;;10404051;28;20157;-55
2024/03/07 17:01:01;;;;;;;6.18;3.30;;;23.20;43.50;;;;;;10401901;28;20418;-57
2024/03/07 17:06:09;;;;;;;10.45;3.55;;;23.00;43.70;;;;;;10400370;28;20037;-56
2024/03/07 17:11:13;;;;;;;8.77;4.00;;;23.10;44.40;;;;;;10395641;28;20089;-56
2024/03/07 17:16:15;;;;;;;5.82;3.90;;;23.10;43.80;;;;;;10398894;28;20049;-56
2024/03/07 17:21:18;;;;;;;6.38;3.70;;;23.10;43.30;;;;;;10395643;28;20786;-58
2024/03/07 17:26:19;;;;;;;4.43;3.50;;;23.00;43.60;;;;;;10402701;28;20045;-57
2024/03/07 17:31:21;;;;;;;6.03;3.72;;;23.00;43.60;;;;;;10399646;28;20133;-57
2024/03/07 17:36:24;;;;;;;5.10;4.28;;;23.00;43.40;;;;;;10397057;28;20053;-59
2024/03/07 17:41:26;;;;;;;6.22;3.67;;;23.00;43.50;;;;;;10396372;28;20073;-56
2024/03/07 17:46:28;;;;;;;5.00;3.53;;;23.10;44.00;;;;;;10398300;28;20053;-58
2024/03/07 17:51:31;;;;;;;13.63;3.60;;;23.10;43.30;;;;;;10394986;28;20497;-58
2024/03/07 17:56:34;;;;;;;6.10;3.45;;;23.10;43.10;;;;;;10392303;28;20083;-57
2024/03/07 18:01:35;;;;;;;10.52;3.65;;;23.10;43.20;;;;;;10394085;28;20054;-60
2024/03/07 18:06:38;;;;;;;10.35;3.63;;;23.00;43.60;;;;;;10394916;28;20073;-59
2024/03/07 18:11:40;;;;;;;6.63;3.80;;;23.20;43.20;;;;;;10399284;28;20065;-59
2024/03/07 18:16:41;;;;;;;4.85;3.55;;;23.20;43.20;;;;;;10397653;28;20042;-58
2024/03/07 18:21:45;;;;;;;6.90;3.30;;;23.10;43.00;;;;;;10399303;28;20121;-56
2024/03/07 18:26:47;;;;;;;7.57;4.05;;;23.00;43.10;;;;;;10397725;28;20455;-61
2024/03/07 18:31:48;;;;;;;7.78;3.58;;;23.10;43.30;;;;;;10400910;28;20589;-60
2024/03/07 18:36:51;;;;;;;6.70;2.80;;;23.20;43.20;;;;;;10402592;28;20056;-60
2024/03/07 18:41:53;;;;;;;6.82;3.38;;;23.20;43.20;;;;;;10401719;28;20140;-58
2024/03/07 18:46:55;;;;;;;7.75;3.08;;;23.30;43.50;;;;;;10402259;28;20049;-59
2024/03/07 18:51:58;;;;;;;5.43;3.20;;;23.30;43.20;;;;;;10397937;28;20497;-62
2024/03/07 18:57:00;;;;;;;12.93;3.92;;;23.30;43.10;;;;;;10391205;28;20044;-59
2024/03/07 19:02:01;;;;;;;9.95;3.40;;;23.30;42.60;;;;;;10390754;28;20069;-58
2024/03/07 19:07:08;;;;;;;7.78;4.00;;;23.10;43.10;;;;;;10391199;28;20141;-58
2024/03/07 19:12:10;;;;;;;5.85;2.75;;;22.90;43.60;;;;;;10397228;28;20053;-59
2024/03/07 19:17:14;;;;;;;5.07;2.80;;;22.90;44.00;;;;;;10396060;28;20518;-57
2024/03/07 19:22:17;;;;;;;4.18;2.72;;;22.80;44.10;;;;;;10393855;28;20054;-58
2024/03/07 19:27:19;;;;;;;4.95;3.03;;;22.80;44.10;;;;;;10394619;28;20095;-59
2024/03/07 19:32:20;;;;;;;4.93;3.20;;;22.70;44.10;;;;;;10394828;28;20459;-61
2024/03/07 19:37:24;;;;;;;8.27;3.25;;;22.70;44.30;;;;;;10393622;28;20128;-61
2024/03/07 19:42:26;;;;;;;8.93;3.13;;;22.70;44.50;;;;;;10400903;28;20148;-60
2024/03/07 19:47:30;;;;;;;9.65;3.38;;;22.70;45.30;;;;;;10397706;28;20147;-60
2024/03/07 19:52:33;;;;;;;6.93;3.08;;;22.90;44.30;;;;;;10398030;28;20069;-61
2024/03/07 19:57:36;;;;;;;6.28;2.80;;;22.90;44.50;;;;;;10396427;28;20041;-59
2024/03/07 20:02:39;;;;;;;7.88;3.15;;;22.90;45.10;;;;;;10397844;28;20041;-61
2024/03/07 20:07:42;;;;;;;18.23;3.53;;;22.90;44.30;;;;;;10394966;28;20044;-61
2024/03/07 20:12:44;;;;;;;5.30;3.38;;;22.80;44.10;;;;;;10397760;28;20084;-60
2024/03/07 20:17:45;;;;;;;6.68;3.55;;;22.90;44.20;;;;;;10394833;28;20562;-60
2024/03/07 20:22:52;;;;;;;11.15;3.70;;;22.80;44.20;;;;;;10392549;28;20529;-60
2024/03/07 20:27:55;;;;;;;13.18;3.60;;;22.80;44.30;;;;;;10400560;28;20507;-59
2024/03/07 20:32:57;;;;;;;8.00;3.30;;;22.90;44.30;;;;;;10395287;28;20494;-60
2024/03/07 20:38:04;;;;;;;6.50;2.63;;;22.90;44.30;;;;;;10394487;28;20478;-60
2024/03/07 20:43:07;;;;;;;3.65;2.70;;;22.80;44.40;;;;;;10394739;28;20045;-60
2024/03/07 20:48:11;;;;;;;8.88;2.95;;;22.80;44.50;;;;;;10393908;28;20504;-60
2024/03/07 20:53:14;;;;;;;8.23;2.80;;;22.60;44.70;;;;;;10392732;28;20519;-59
2024/03/07 20:58:16;;;;;;;7.38;3.10;;;22.50;44.80;;;;;;10396100;28;20045;-60
2024/03/07 21:03:22;;;;;;;5.22;2.75;;;22.30;45.10;;;;;;10395295;28;20050;-59
2024/03/07 21:08:25;;;;;;;4.10;2.92;;;22.30;45.10;;;;;;10395943;28;20056;-60
2024/03/07 21:13:27;;;;;;;6.78;3.05;;;22.20;45.20;;;;;;10394818;28;20625;-58
2024/03/07 21:18:31;;;;;;;5.90;2.90;;;22.10;45.40;;;;;;10402821;28;20099;-60
2024/03/07 21:23:34;;;;;;;8.65;3.30;;;22.20;45.40;;;;;;10404069;28;20073;-59
2024/03/07 21:28:35;;;;;;;4.35;2.70;;;22.00;45.60;;;;;;10399177;28;20127;-60
2024/03/07 21:33:39;;;;;;;4.82;2.53;;;21.90;45.70;;;;;;10398755;28;20464;-59
2024/03/07 21:38:42;;;;;;;6.85;3.15;;;21.90;45.80;;;;;;10405412;28;20049;-60
2024/03/07 21:43:43;;;;;;;3.50;2.50;;;22.00;45.60;;;;;;10404303;28;20153;-59
2024/03/07 21:48:47;;;;;;;4.20;2.45;;;22.10;45.30;;;;;;10403569;28;20129;-59
2024/03/07 21:53:51;;;;;;;4.28;2.42;;;22.00;45.40;;;;;;10399632;28;20686;-60
2024/03/07 21:58:52;;;;;;;4.68;2.70;;;22.00;45.40;;;;;;10398878;28;20057;-60
2024/03/07 22:03:57;;;;;;;3.30;2.55;;;22.00;45.80;;;;;;10401053;28;20149;-60
2024/03/07 22:09:00;;;;;;;5.43;2.67;;;22.00;45.80;;;;;;10403334;28;20045;-58
2024/03/07 22:14:01;;;;;;;4.45;2.53;;;21.90;45.60;;;;;;10402371;28;20068;-60
2024/03/07 22:19:03;;;;;;;3.42;2.40;;;22.10;45.40;;;;;;10405432;28;20075;-60
2024/03/07 22:24:07;;;;;;;5.03;2.45;;;22.00;45.40;;;;;;10401761;28;20574;-60
2024/03/07 22:29:09;;;;;;;4.20;2.40;;;22.10;45.90;;;;;;10398540;28;20080;-61
2024/03/07 22:34:11;;;;;;;2.88;2.20;;;22.00;45.30;;;;;;10399367;28;20136;-58
2024/03/07 22:39:14;;;;;;;2.30;2.10;;;22.00;45.50;;;;;;10403145;28;20171;-60
2024/03/07 22:44:15;;;;;;;3.67;1.98;;;22.00;45.50;;;;;;10399178;28;20084;-60
2024/03/07 22:49:19;;;;;;;4.72;2.53;;;21.80;45.70;;;;;;10399298;28;20140;-59
2024/03/07 22:54:23;;;;;;;3.70;2.40;;;21.70;46.00;;;;;;10401540;28;20049;-57
2024/03/07 22:59:24;;;;;;;3.25;2.20;;;21.70;46.10;;;;;;10399473;28;20416;-59
2024/03/07 23:04:29;;;;;;;2.33;2.13;;;21.70;45.90;;;;;;10400322;28;20137;-60
2024/03/07 23:09:32;;;;;;;3.03;2.40;;;21.70;46.10;;;;;;10401378;28;20056;-60
2024/03/07 23:14:34;;;;;;;2.72;2.25;;;21.70;46.30;;;;;;10402975;28;20563;-60
2024/03/07 23:19:36;;;;;;;3.28;2.40;;;21.60;46.40;;;;;;10402960;28;20068;-60
2024/03/07 23:24:39;;;;;;;3.05;2.25;;;21.60;46.50;;;;;;10401189;28;20430;-59
2024/03/07 23:29:43;;;;;;;2.75;2.08;;;21.50;46.70;;;;;;10402303;28;20133;-57
2024/03/07 23:34:45;;;;;;;4.72;2.60;;;21.50;46.80;;;;;;10400273;28;20136;-59
2024/03/07 23:39:47;;;;;;;3.65;2.63;;;21.40;46.80;;;;;;10398217;28;20053;-59
2024/03/07 23:44:50;;;;;;;2.33;2.13;;;21.40;46.80;;;;;;10397185;28;20516;-60
2024/03/07 23:49:53;;;;;;;2.67;2.42;;;21.50;46.80;;;;;;10395654;28;20049;-60
2024/03/07 23:54:56;;;;;;;3.05;2.33;;;21.30;47.00;;;;;;10393245;28;21460;-61
2024/03/07 23:59:58;;;;;;;5.28;2.38;;;21.50;46.60;;;;;;10398522;28;20099;-62
